Vanlue, Ohio
Current Conditions -  °F | °C
As of 11:53 AM on Thursday 18 Dec 2014 (Local Time) from KFDY Reporting Station
Overcast Overcast  
Wind Chill: 21°   Ceiling: 2000
Heat Index: 30°   Visibility: 10mi
Dew Point: 23°   Wind: 12mph
Humidity: 75%   Direction: 240°WSW
Pressure: 30.23"   Gusts: NA
Location:  40.98°N, 83.48°W
Report Text: KFDY 181653Z AUTO 24010KT 10SM OVC020 M01/M05 A3023 RMK AO2 SLP242 T10111050
Loading
Personal Weather Stations






























Interactive Weather Map New forecast layout! Learn more

10-Day Weather Forecast

Advertisements
Track Severe Weather on mobile